Terminal Aerodrome Forecast
Issued by NWS

Home | Current Version | Previous Version | Text Only | Print | Product List | Glossary On
Versions: 1 2 3 4 5 6 7 8 9 10 11 12 13 14 15 16 17 18 19 20 21 22 23 24 25 26 27 28 29 30
014
FTUS42 KCAE 031510 AAA
TAFCUB
TAF AMD
KCUB 031510Z 0315/0412 24011G16KT P6SM SCT020 BKN040
      TEMPO 0315/0317 SCT015 BKN022 BKN080
     FM032000 25010G17KT P6SM VCTS SCT030 BKN050CB BKN110
     FM040400 26006KT P6SM SCT040 BKN080=

USA.gov is the U.S. government's official web portal to all federal, state and local government web resources and services.